Terminal Aerodrome Forecast
Issued by NWS North Platte, NE

Home | Current Version | Previous Version | Text Only | Print | Product List | Glossary On
Versions: 1 2 3 4 5 6 7 8 9 10 11
810
FTUS43 KLBF 201134
TAFLBF
TAF
KLBF 201134Z 2012/2112 04006KT P6SM BKN250
     FM202200 04009KT P6SM BKN200
     FM210900 02012KT P6SM OVC070=

USA.gov is the U.S. government's official web portal to all federal, state and local government web resources and services.